sensor_id;sensor_type;location;lat;lon;timestamp;P1;durP1;ratioP1;P2;durP2;ratioP2
46719;SDS011;32452;51.382;-0.002;2023-12-22T00:02:43;25.88;;;6.80;;
46719;SDS011;32452;51.382;-0.002;2023-12-22T00:05:30;24.80;;;5.63;;
46719;SDS011;32452;51.382;-0.002;2023-12-22T00:08:17;21.20;;;4.95;;
46719;SDS011;32452;51.382;-0.002;2023-12-22T00:11:03;25.15;;;5.43;;
46719;SDS011;32452;51.382;-0.002;2023-12-22T00:13:49;23.90;;;5.28;;
46719;SDS011;32452;51.382;-0.002;2023-12-22T00:16:36;21.15;;;4.40;;
46719;SDS011;32452;51.382;-0.002;2023-12-22T00:19:24;24.77;;;5.85;;
46719;SDS011;32452;51.382;-0.002;2023-12-22T00:22:11;21.52;;;4.47;;
46719;SDS011;32452;51.382;-0.002;2023-12-22T00:24:57;20.77;;;4.45;;
46719;SDS011;32452;51.382;-0.002;2023-12-22T00:27:43;19.08;;;4.55;;
46719;SDS011;32452;51.382;-0.002;2023-12-22T00:30:29;21.30;;;4.32;;
46719;SDS011;32452;51.382;-0.002;2023-12-22T00:33:14;21.48;;;4.47;;
46719;SDS011;32452;51.382;-0.002;2023-12-22T00:36:01;21.60;;;4.43;;
46719;SDS011;32452;51.382;-0.002;2023-12-22T00:38:46;22.35;;;5.00;;
46719;SDS011;32452;51.382;-0.002;2023-12-22T00:41:32;22.05;;;4.32;;
46719;SDS011;32452;51.382;-0.002;2023-12-22T00:44:17;18.50;;;4.18;;
46719;SDS011;32452;51.382;-0.002;2023-12-22T00:47:03;24.67;;;5.07;;
46719;SDS011;32452;51.382;-0.002;2023-12-22T00:49:49;23.48;;;5.45;;
46719;SDS011;32452;51.382;-0.002;2023-12-22T00:52:34;20.42;;;5.15;;
46719;SDS011;32452;51.382;-0.002;2023-12-22T00:55:20;20.85;;;4.05;;
46719;SDS011;32452;51.382;-0.002;2023-12-22T00:58:05;25.95;;;5.35;;
46719;SDS011;32452;51.382;-0.002;2023-12-22T01:00:52;27.25;;;4.80;;
46719;SDS011;32452;51.382;-0.002;2023-12-22T01:03:54;16.77;;;3.53;;
46719;SDS011;32452;51.382;-0.002;2023-12-22T01:06:44;15.60;;;4.20;;
46719;SDS011;32452;51.382;-0.002;2023-12-22T01:09:39;20.13;;;3.50;;
46719;SDS011;32452;51.382;-0.002;2023-12-22T01:12:25;14.77;;;3.22;;
46719;SDS011;32452;51.382;-0.002;2023-12-22T01:15:11;17.92;;;4.05;;
46719;SDS011;32452;51.382;-0.002;2023-12-22T01:17:56;16.83;;;2.97;;
46719;SDS011;32452;51.382;-0.002;2023-12-22T01:20:42;15.85;;;3.10;;
46719;SDS011;32452;51.382;-0.002;2023-12-22T01:23:33;15.60;;;3.22;;
46719;SDS011;32452;51.382;-0.002;2023-12-22T01:26:22;15.00;;;3.13;;
46719;SDS011;32452;51.382;-0.002;2023-12-22T01:29:09;11.43;;;2.38;;
46719;SDS011;32452;51.382;-0.002;2023-12-22T01:32:06;13.88;;;2.78;;
46719;SDS011;32452;51.382;-0.002;2023-12-22T01:34:54;22.80;;;3.33;;
46719;SDS011;32452;51.382;-0.002;2023-12-22T01:37:42;10.73;;;2.50;;
46719;SDS011;32452;51.382;-0.002;2023-12-22T01:40:28;10.80;;;2.00;;
46719;SDS011;32452;51.382;-0.002;2023-12-22T01:43:14;11.88;;;2.05;;
46719;SDS011;32452;51.382;-0.002;2023-12-22T01:46:06;9.93;;;1.40;;
46719;SDS011;32452;51.382;-0.002;2023-12-22T01:48:55;7.55;;;1.13;;
46719;SDS011;32452;51.382;-0.002;2023-12-22T01:51:45;12.15;;;2.05;;
46719;SDS011;32452;51.382;-0.002;2023-12-22T01:54:31;7.53;;;1.23;;
46719;SDS011;32452;51.382;-0.002;2023-12-22T01:57:17;7.10;;;1.35;;
46719;SDS011;32452;51.382;-0.002;2023-12-22T02:00:04;7.65;;;1.20;;
46719;SDS011;32452;51.382;-0.002;2023-12-22T02:02:50;6.38;;;1.35;;
46719;SDS011;32452;51.382;-0.002;2023-12-22T02:05:42;3.70;;;1.00;;
46719;SDS011;32452;51.382;-0.002;2023-12-22T02:08:29;5.93;;;1.23;;
46719;SDS011;32452;51.382;-0.002;2023-12-22T02:11:17;4.28;;;1.10;;
46719;SDS011;32452;51.382;-0.002;2023-12-22T02:14:03;9.40;;;1.40;;
46719;SDS011;32452;51.382;-0.002;2023-12-22T02:17:00;10.50;;;1.90;;
46719;SDS011;32452;51.382;-0.002;2023-12-22T02:20:31;7.85;;;1.15;;
46719;SDS011;32452;51.382;-0.002;2023-12-22T02:23:18;6.47;;;1.73;;
46719;SDS011;32452;51.382;-0.002;2023-12-22T02:26:17;9.38;;;1.55;;
46719;SDS011;32452;51.382;-0.002;2023-12-22T02:29:12;12.52;;;2.42;;
46719;SDS011;32452;51.382;-0.002;2023-12-22T02:32:16;7.93;;;1.48;;
46719;SDS011;32452;51.382;-0.002;2023-12-22T02:35:13;16.30;;;2.28;;
46719;SDS011;32452;51.382;-0.002;2023-12-22T02:38:02;8.80;;;1.92;;
46719;SDS011;32452;51.382;-0.002;2023-12-22T02:40:50;9.05;;;1.70;;
46719;SDS011;32452;51.382;-0.002;2023-12-22T02:43:36;8.63;;;1.80;;
46719;SDS011;32452;51.382;-0.002;2023-12-22T02:46:21;9.00;;;1.80;;
46719;SDS011;32452;51.382;-0.002;2023-12-22T02:49:07;12.90;;;2.22;;
46719;SDS011;32452;51.382;-0.002;2023-12-22T02:51:53;10.55;;;1.85;;
46719;SDS011;32452;51.382;-0.002;2023-12-22T02:54:39;15.13;;;3.00;;
46719;SDS011;32452;51.382;-0.002;2023-12-22T02:57:25;13.80;;;2.92;;
46719;SDS011;32452;51.382;-0.002;2023-12-22T03:00:11;11.55;;;2.40;;
46719;SDS011;32452;51.382;-0.002;2023-12-22T03:02:56;13.68;;;2.22;;
46719;SDS011;32452;51.382;-0.002;2023-12-22T03:05:42;13.73;;;3.00;;
46719;SDS011;32452;51.382;-0.002;2023-12-22T03:08:27;14.70;;;3.20;;
46719;SDS011;32452;51.382;-0.002;2023-12-22T03:11:13;13.02;;;3.10;;
46719;SDS011;32452;51.382;-0.002;2023-12-22T03:13:58;15.52;;;3.53;;
46719;SDS011;32452;51.382;-0.002;2023-12-22T03:16:44;14.07;;;2.63;;
46719;SDS011;32452;51.382;-0.002;2023-12-22T03:19:30;11.95;;;2.17;;
46719;SDS011;32452;51.382;-0.002;2023-12-22T03:22:15;10.90;;;2.88;;
46719;SDS011;32452;51.382;-0.002;2023-12-22T03:25:01;10.80;;;2.42;;
46719;SDS011;32452;51.382;-0.002;2023-12-22T03:27:47;11.02;;;1.90;;
46719;SDS011;32452;51.382;-0.002;2023-12-22T03:30:33;11.70;;;2.17;;
46719;SDS011;32452;51.382;-0.002;2023-12-22T03:33:20;8.07;;;1.70;;
46719;SDS011;32452;51.382;-0.002;2023-12-22T03:36:06;13.80;;;2.33;;
46719;SDS011;32452;51.382;-0.002;2023-12-22T03:38:52;10.18;;;1.52;;
46719;SDS011;32452;51.382;-0.002;2023-12-22T03:41:38;6.57;;;1.65;;
46719;SDS011;32452;51.382;-0.002;2023-12-22T03:44:23;8.35;;;2.33;;
46719;SDS011;32452;51.382;-0.002;2023-12-22T03:47:11;6.43;;;1.30;;
46719;SDS011;32452;51.382;-0.002;2023-12-22T03:49:56;7.60;;;1.52;;
46719;SDS011;32452;51.382;-0.002;2023-12-22T03:52:42;6.15;;;1.38;;
46719;SDS011;32452;51.382;-0.002;2023-12-22T03:55:28;4.88;;;1.15;;
46719;SDS011;32452;51.382;-0.002;2023-12-22T03:58:13;3.67;;;1.45;;
46719;SDS011;32452;51.382;-0.002;2023-12-22T04:00:59;7.70;;;1.73;;
46719;SDS011;32452;51.382;-0.002;2023-12-22T04:03:45;5.68;;;1.77;;
46719;SDS011;32452;51.382;-0.002;2023-12-22T04:06:31;5.15;;;1.20;;
46719;SDS011;32452;51.382;-0.002;2023-12-22T04:09:16;7.45;;;1.38;;
46719;SDS011;32452;51.382;-0.002;2023-12-22T04:12:02;5.28;;;1.67;;
46719;SDS011;32452;51.382;-0.002;2023-12-22T04:14:48;4.35;;;1.65;;
46719;SDS011;32452;51.382;-0.002;2023-12-22T04:17:33;4.70;;;1.38;;
46719;SDS011;32452;51.382;-0.002;2023-12-22T04:20:19;4.88;;;1.30;;
46719;SDS011;32452;51.382;-0.002;2023-12-22T04:23:05;5.43;;;1.30;;
46719;SDS011;32452;51.382;-0.002;2023-12-22T04:25:50;4.57;;;0.80;;
46719;SDS011;32452;51.382;-0.002;2023-12-22T04:28:36;5.80;;;1.20;;
46719;SDS011;32452;51.382;-0.002;2023-12-22T04:31:22;8.10;;;1.38;;
46719;SDS011;32452;51.382;-0.002;2023-12-22T04:34:13;3.95;;;0.73;;
46719;SDS011;32452;51.382;-0.002;2023-12-22T04:36:59;2.85;;;0.93;;
46719;SDS011;32452;51.382;-0.002;2023-12-22T04:39:44;7.85;;;0.98;;
46719;SDS011;32452;51.382;-0.002;2023-12-22T04:42:30;4.70;;;0.90;;
46719;SDS011;32452;51.382;-0.002;2023-12-22T04:45:16;3.85;;;0.50;;
46719;SDS011;32452;51.382;-0.002;2023-12-22T04:48:02;3.85;;;1.17;;
46719;SDS011;32452;51.382;-0.002;2023-12-22T04:50:48;6.07;;;0.95;;
46719;SDS011;32452;51.382;-0.002;2023-12-22T04:53:33;5.53;;;1.15;;
46719;SDS011;32452;51.382;-0.002;2023-12-22T04:56:19;7.53;;;1.42;;
46719;SDS011;32452;51.382;-0.002;2023-12-22T04:59:04;1.48;;;0.90;;
46719;SDS011;32452;51.382;-0.002;2023-12-22T05:01:50;3.00;;;0.88;;
46719;SDS011;32452;51.382;-0.002;2023-12-22T05:04:36;4.35;;;1.00;;
46719;SDS011;32452;51.382;-0.002;2023-12-22T05:07:22;3.25;;;0.90;;
46719;SDS011;32452;51.382;-0.002;2023-12-22T05:10:08;5.10;;;1.15;;
46719;SDS011;32452;51.382;-0.002;2023-12-22T05:12:53;3.55;;;0.95;;
46719;SDS011;32452;51.382;-0.002;2023-12-22T05:15:39;2.35;;;0.65;;
46719;SDS011;32452;51.382;-0.002;2023-12-22T05:18:25;3.03;;;0.63;;
46719;SDS011;32452;51.382;-0.002;2023-12-22T05:21:14;4.68;;;0.75;;
46719;SDS011;32452;51.382;-0.002;2023-12-22T05:24:00;4.13;;;0.80;;
46719;SDS011;32452;51.382;-0.002;2023-12-22T05:26:45;5.50;;;0.70;;
46719;SDS011;32452;51.382;-0.002;2023-12-22T05:29:31;4.18;;;1.55;;
46719;SDS011;32452;51.382;-0.002;2023-12-22T05:32:18;3.00;;;1.23;;
46719;SDS011;32452;51.382;-0.002;2023-12-22T05:35:04;3.85;;;0.80;;
46719;SDS011;32452;51.382;-0.002;2023-12-22T05:37:50;3.10;;;1.02;;
46719;SDS011;32452;51.382;-0.002;2023-12-22T05:40:36;3.45;;;1.00;;
46719;SDS011;32452;51.382;-0.002;2023-12-22T05:43:22;2.30;;;0.60;;
46719;SDS011;32452;51.382;-0.002;2023-12-22T05:46:07;4.68;;;0.57;;
46719;SDS011;32452;51.382;-0.002;2023-12-22T05:48:54;3.83;;;0.70;;
46719;SDS011;32452;51.382;-0.002;2023-12-22T05:51:44;3.08;;;0.65;;
46719;SDS011;32452;51.382;-0.002;2023-12-22T05:54:29;4.05;;;0.73;;
46719;SDS011;32452;51.382;-0.002;2023-12-22T05:57:15;2.00;;;0.50;;
46719;SDS011;32452;51.382;-0.002;2023-12-22T06:00:02;4.53;;;0.75;;
46719;SDS011;32452;51.382;-0.002;2023-12-22T06:02:54;1.95;;;0.68;;
46719;SDS011;32452;51.382;-0.002;2023-12-22T06:05:51;2.28;;;0.80;;
46719;SDS011;32452;51.382;-0.002;2023-12-22T06:08:37;5.03;;;0.88;;
46719;SDS011;32452;51.382;-0.002;2023-12-22T06:11:23;6.13;;;1.30;;
46719;SDS011;32452;51.382;-0.002;2023-12-22T06:14:08;5.57;;;0.90;;
46719;SDS011;32452;51.382;-0.002;2023-12-22T06:16:54;2.25;;;1.00;;
46719;SDS011;32452;51.382;-0.002;2023-12-22T06:19:42;2.95;;;1.00;;
46719;SDS011;32452;51.382;-0.002;2023-12-22T06:22:28;4.38;;;0.98;;
46719;SDS011;32452;51.382;-0.002;2023-12-22T06:25:14;3.15;;;1.63;;
46719;SDS011;32452;51.382;-0.002;2023-12-22T06:27:59;4.13;;;0.88;;
46719;SDS011;32452;51.382;-0.002;2023-12-22T06:30:45;1.25;;;0.93;;
46719;SDS011;32452;51.382;-0.002;2023-12-22T06:33:31;5.55;;;1.23;;
46719;SDS011;32452;51.382;-0.002;2023-12-22T06:36:17;3.55;;;0.93;;
46719;SDS011;32452;51.382;-0.002;2023-12-22T06:39:06;2.67;;;1.15;;
46719;SDS011;32452;51.382;-0.002;2023-12-22T06:41:52;3.13;;;0.90;;
46719;SDS011;32452;51.382;-0.002;2023-12-22T06:44:38;3.75;;;0.98;;
46719;SDS011;32452;51.382;-0.002;2023-12-22T06:47:26;3.75;;;0.90;;
46719;SDS011;32452;51.382;-0.002;2023-12-22T06:50:12;4.15;;;1.02;;
46719;SDS011;32452;51.382;-0.002;2023-12-22T06:52:57;3.13;;;0.80;;
46719;SDS011;32452;51.382;-0.002;2023-12-22T06:55:54;3.80;;;0.95;;
46719;SDS011;32452;51.382;-0.002;2023-12-22T06:58:39;2.08;;;0.85;;
46719;SDS011;32452;51.382;-0.002;2023-12-22T07:01:26;2.53;;;0.70;;
46719;SDS011;32452;51.382;-0.002;2023-12-22T07:04:19;2.80;;;0.90;;
46719;SDS011;32452;51.382;-0.002;2023-12-22T07:07:04;3.17;;;0.55;;
46719;SDS011;32452;51.382;-0.002;2023-12-22T07:09:49;5.90;;;1.25;;
46719;SDS011;32452;51.382;-0.002;2023-12-22T07:12:35;3.38;;;0.85;;
46719;SDS011;32452;51.382;-0.002;2023-12-22T07:15:21;4.40;;;0.68;;
46719;SDS011;32452;51.382;-0.002;2023-12-22T07:18:06;2.13;;;0.40;;
46719;SDS011;32452;51.382;-0.002;2023-12-22T07:20:52;1.55;;;0.50;;
46719;SDS011;32452;51.382;-0.002;2023-12-22T07:23:38;2.63;;;0.60;;
46719;SDS011;32452;51.382;-0.002;2023-12-22T07:26:24;2.47;;;0.40;;
46719;SDS011;32452;51.382;-0.002;2023-12-22T07:29:11;1.67;;;0.40;;
46719;SDS011;32452;51.382;-0.002;2023-12-22T07:31:57;1.75;;;0.50;;
46719;SDS011;32452;51.382;-0.002;2023-12-22T07:34:44;1.48;;;0.63;;
46719;SDS011;32452;51.382;-0.002;2023-12-22T07:37:30;2.17;;;0.40;;
46719;SDS011;32452;51.382;-0.002;2023-12-22T07:40:15;1.77;;;0.40;;
46719;SDS011;32452;51.382;-0.002;2023-12-22T07:43:02;2.13;;;0.68;;
46719;SDS011;32452;51.382;-0.002;2023-12-22T07:45:48;2.00;;;0.20;;
46719;SDS011;32452;51.382;-0.002;2023-12-22T07:48:36;2.28;;;0.40;;
46719;SDS011;32452;51.382;-0.002;2023-12-22T07:51:22;5.20;;;2.00;;
46719;SDS011;32452;51.382;-0.002;2023-12-22T07:54:07;2.97;;;0.70;;
46719;SDS011;32452;51.382;-0.002;2023-12-22T07:56:53;2.17;;;0.38;;
46719;SDS011;32452;51.382;-0.002;2023-12-22T07:59:38;0.63;;;0.30;;
46719;SDS011;32452;51.382;-0.002;2023-12-22T08:02:24;1.20;;;0.50;;
46719;SDS011;32452;51.382;-0.002;2023-12-22T08:05:10;2.10;;;0.40;;
46719;SDS011;32452;51.382;-0.002;2023-12-22T08:07:56;1.70;;;0.30;;
46719;SDS011;32452;51.382;-0.002;2023-12-22T08:10:41;1.58;;;0.40;;
46719;SDS011;32452;51.382;-0.002;2023-12-22T08:13:27;3.40;;;1.02;;
46719;SDS011;32452;51.382;-0.002;2023-12-22T08:16:12;4.63;;;0.50;;
46719;SDS011;32452;51.382;-0.002;2023-12-22T08:18:58;4.43;;;0.40;;
46719;SDS011;32452;51.382;-0.002;2023-12-22T08:21:44;1.95;;;0.55;;
46719;SDS011;32452;51.382;-0.002;2023-12-22T08:24:32;2.42;;;0.73;;
46719;SDS011;32452;51.382;-0.002;2023-12-22T08:27:18;5.45;;;0.70;;
46719;SDS011;32452;51.382;-0.002;2023-12-22T08:30:03;2.33;;;0.63;;
46719;SDS011;32452;51.382;-0.002;2023-12-22T08:32:50;4.10;;;0.65;;
46719;SDS011;32452;51.382;-0.002;2023-12-22T08:35:36;3.30;;;0.60;;
46719;SDS011;32452;51.382;-0.002;2023-12-22T08:38:21;1.58;;;0.40;;
46719;SDS011;32452;51.382;-0.002;2023-12-22T08:41:07;6.85;;;0.60;;
46719;SDS011;32452;51.382;-0.002;2023-12-22T08:43:54;3.75;;;0.60;;
46719;SDS011;32452;51.382;-0.002;2023-12-22T08:46:40;1.98;;;0.40;;
46719;SDS011;32452;51.382;-0.002;2023-12-22T08:49:25;2.72;;;0.68;;
46719;SDS011;32452;51.382;-0.002;2023-12-22T08:52:11;2.85;;;0.60;;
46719;SDS011;32452;51.382;-0.002;2023-12-22T08:54:57;1.73;;;0.45;;
46719;SDS011;32452;51.382;-0.002;2023-12-22T08:57:42;4.10;;;0.35;;
46719;SDS011;32452;51.382;-0.002;2023-12-22T09:00:41;3.05;;;0.73;;
46719;SDS011;32452;51.382;-0.002;2023-12-22T09:03:26;1.33;;;0.30;;
46719;SDS011;32452;51.382;-0.002;2023-12-22T09:06:16;3.50;;;0.70;;
46719;SDS011;32452;51.382;-0.002;2023-12-22T09:09:02;2.70;;;0.55;;
46719;SDS011;32452;51.382;-0.002;2023-12-22T09:11:53;4.68;;;0.98;;
46719;SDS011;32452;51.382;-0.002;2023-12-22T09:14:39;2.67;;;0.60;;
46719;SDS011;32452;51.382;-0.002;2023-12-22T09:17:26;3.65;;;0.52;;
46719;SDS011;32452;51.382;-0.002;2023-12-22T09:20:13;1.40;;;0.50;;
46719;SDS011;32452;51.382;-0.002;2023-12-22T09:22:58;3.55;;;0.70;;
46719;SDS011;32452;51.382;-0.002;2023-12-22T09:25:44;3.08;;;0.60;;
46719;SDS011;32452;51.382;-0.002;2023-12-22T09:28:30;3.60;;;0.60;;
46719;SDS011;32452;51.382;-0.002;2023-12-22T09:31:15;2.50;;;0.57;;
46719;SDS011;32452;51.382;-0.002;2023-12-22T09:34:01;3.10;;;0.52;;
46719;SDS011;32452;51.382;-0.002;2023-12-22T09:36:48;3.40;;;0.60;;
46719;SDS011;32452;51.382;-0.002;2023-12-22T09:39:33;6.95;;;1.17;;
46719;SDS011;32452;51.382;-0.002;2023-12-22T09:42:20;5.35;;;1.05;;
46719;SDS011;32452;51.382;-0.002;2023-12-22T09:45:06;6.53;;;1.00;;
46719;SDS011;32452;51.382;-0.002;2023-12-22T09:47:55;2.47;;;0.70;;
46719;SDS011;32452;51.382;-0.002;2023-12-22T09:50:43;4.25;;;0.73;;
46719;SDS011;32452;51.382;-0.002;2023-12-22T09:53:29;3.10;;;0.75;;
46719;SDS011;32452;51.382;-0.002;2023-12-22T09:56:17;3.50;;;0.70;;
46719;SDS011;32452;51.382;-0.002;2023-12-22T09:59:04;5.80;;;2.08;;
46719;SDS011;32452;51.382;-0.002;2023-12-22T10:01:50;4.80;;;1.10;;
46719;SDS011;32452;51.382;-0.002;2023-12-22T10:04:37;4.43;;;0.90;;
46719;SDS011;32452;51.382;-0.002;2023-12-22T10:07:23;2.67;;;0.65;;
46719;SDS011;32452;51.382;-0.002;2023-12-22T10:10:11;4.60;;;0.70;;
46719;SDS011;32452;51.382;-0.002;2023-12-22T10:12:57;6.05;;;0.88;;
46719;SDS011;32452;51.382;-0.002;2023-12-22T10:15:44;5.00;;;1.00;;
46719;SDS011;32452;51.382;-0.002;2023-12-22T10:18:32;4.85;;;1.27;;
46719;SDS011;32452;51.382;-0.002;2023-12-22T10:21:18;7.20;;;1.27;;
46719;SDS011;32452;51.382;-0.002;2023-12-22T10:24:04;4.45;;;1.17;;
46719;SDS011;32452;51.382;-0.002;2023-12-22T10:26:51;3.80;;;1.00;;
46719;SDS011;32452;51.382;-0.002;2023-12-22T10:29:41;3.72;;;1.10;;
46719;SDS011;32452;51.382;-0.002;2023-12-22T10:32:26;5.25;;;1.30;;
46719;SDS011;32452;51.382;-0.002;2023-12-22T10:35:12;2.90;;;1.00;;
46719;SDS011;32452;51.382;-0.002;2023-12-22T10:37:58;7.93;;;1.30;;
46719;SDS011;32452;51.382;-0.002;2023-12-22T10:40:48;7.60;;;1.13;;
46719;SDS011;32452;51.382;-0.002;2023-12-22T10:43:38;7.57;;;1.63;;
46719;SDS011;32452;51.382;-0.002;2023-12-22T10:46:25;3.78;;;1.02;;
46719;SDS011;32452;51.382;-0.002;2023-12-22T10:49:10;5.63;;;1.30;;
46719;SDS011;32452;51.382;-0.002;2023-12-22T10:51:57;7.35;;;1.33;;
46719;SDS011;32452;51.382;-0.002;2023-12-22T10:54:43;6.90;;;1.60;;
46719;SDS011;32452;51.382;-0.002;2023-12-22T10:57:28;7.22;;;1.33;;
46719;SDS011;32452;51.382;-0.002;2023-12-22T11:00:16;7.47;;;1.77;;
46719;SDS011;32452;51.382;-0.002;2023-12-22T11:03:06;6.10;;;1.23;;
46719;SDS011;32452;51.382;-0.002;2023-12-22T11:05:53;10.30;;;2.35;;
46719;SDS011;32452;51.382;-0.002;2023-12-22T11:08:44;11.00;;;2.20;;
46719;SDS011;32452;51.382;-0.002;2023-12-22T11:11:36;8.68;;;2.75;;
46719;SDS011;32452;51.382;-0.002;2023-12-22T11:14:23;7.28;;;1.75;;
46719;SDS011;32452;51.382;-0.002;2023-12-22T11:17:11;9.70;;;1.60;;
46719;SDS011;32452;51.382;-0.002;2023-12-22T11:19:57;5.43;;;1.23;;
46719;SDS011;32452;51.382;-0.002;2023-12-22T11:22:44;7.50;;;1.58;;
46719;SDS011;32452;51.382;-0.002;2023-12-22T11:25:30;9.48;;;2.22;;
46719;SDS011;32452;51.382;-0.002;2023-12-22T11:28:18;9.15;;;1.50;;
46719;SDS011;32452;51.382;-0.002;2023-12-22T11:31:07;9.18;;;1.45;;
46719;SDS011;32452;51.382;-0.002;2023-12-22T11:33:55;8.65;;;1.70;;
46719;SDS011;32452;51.382;-0.002;2023-12-22T11:36:55;9.25;;;1.50;;
46719;SDS011;32452;51.382;-0.002;2023-12-22T11:39:43;9.15;;;2.03;;
46719;SDS011;32452;51.382;-0.002;2023-12-22T11:42:31;7.05;;;1.70;;
46719;SDS011;32452;51.382;-0.002;2023-12-22T11:45:23;6.45;;;1.42;;
46719;SDS011;32452;51.382;-0.002;2023-12-22T11:48:09;8.35;;;1.48;;
46719;SDS011;32452;51.382;-0.002;2023-12-22T11:50:56;6.38;;;1.00;;
46719;SDS011;32452;51.382;-0.002;2023-12-22T11:53:41;9.07;;;1.40;;
46719;SDS011;32452;51.382;-0.002;2023-12-22T11:56:28;7.15;;;1.42;;
46719;SDS011;32452;51.382;-0.002;2023-12-22T11:59:16;7.93;;;1.60;;
46719;SDS011;32452;51.382;-0.002;2023-12-22T12:02:01;7.10;;;1.98;;
46719;SDS011;32452;51.382;-0.002;2023-12-22T12:04:48;11.30;;;1.30;;
46719;SDS011;32452;51.382;-0.002;2023-12-22T12:13:23;6.72;;;1.48;;
46719;SDS011;32452;51.382;-0.002;2023-12-22T12:16:12;6.22;;;1.17;;
46719;SDS011;32452;51.382;-0.002;2023-12-22T12:18:59;6.22;;;1.38;;
46719;SDS011;32452;51.382;-0.002;2023-12-22T12:21:47;4.05;;;1.20;;
46719;SDS011;32452;51.382;-0.002;2023-12-22T12:24:33;7.43;;;1.50;;
46719;SDS011;32452;51.382;-0.002;2023-12-22T12:27:20;7.72;;;1.10;;
46719;SDS011;32452;51.382;-0.002;2023-12-22T12:30:07;5.80;;;1.02;;
46719;SDS011;32452;51.382;-0.002;2023-12-22T12:35:57;6.55;;;0.80;;
46719;SDS011;32452;51.382;-0.002;2023-12-22T12:38:58;4.78;;;0.90;;
46719;SDS011;32452;51.382;-0.002;2023-12-22T12:41:53;6.25;;;1.33;;
46719;SDS011;32452;51.382;-0.002;2023-12-22T12:44:38;5.63;;;1.20;;
46719;SDS011;32452;51.382;-0.002;2023-12-22T12:47:26;5.75;;;1.70;;
46719;SDS011;32452;51.382;-0.002;2023-12-22T12:50:12;4.78;;;1.83;;
46719;SDS011;32452;51.382;-0.002;2023-12-22T12:52:57;9.95;;;1.42;;
46719;SDS011;32452;51.382;-0.002;2023-12-22T12:55:44;5.03;;;1.30;;
46719;SDS011;32452;51.382;-0.002;2023-12-22T12:58:31;6.68;;;1.10;;
46719;SDS011;32452;51.382;-0.002;2023-12-22T13:01:18;5.70;;;1.02;;
46719;SDS011;32452;51.382;-0.002;2023-12-22T13:04:13;5.80;;;1.67;;
46719;SDS011;32452;51.382;-0.002;2023-12-22T13:07:00;7.72;;;2.67;;
46719;SDS011;32452;51.382;-0.002;2023-12-22T13:09:45;5.88;;;1.38;;
46719;SDS011;32452;51.382;-0.002;2023-12-22T13:12:32;6.28;;;1.30;;
46719;SDS011;32452;51.382;-0.002;2023-12-22T13:15:17;5.53;;;1.40;;
46719;SDS011;32452;51.382;-0.002;2023-12-22T13:18:03;7.18;;;1.88;;
46719;SDS011;32452;51.382;-0.002;2023-12-22T13:20:49;5.85;;;1.75;;
46719;SDS011;32452;51.382;-0.002;2023-12-22T13:23:36;4.88;;;1.30;;
46719;SDS011;32452;51.382;-0.002;2023-12-22T13:26:22;4.80;;;1.23;;
46719;SDS011;32452;51.382;-0.002;2023-12-22T13:29:09;5.07;;;1.15;;
46719;SDS011;32452;51.382;-0.002;2023-12-22T13:31:55;7.85;;;1.40;;
46719;SDS011;32452;51.382;-0.002;2023-12-22T13:34:53;6.47;;;1.20;;
46719;SDS011;32452;51.382;-0.002;2023-12-22T13:37:42;6.93;;;1.40;;
46719;SDS011;32452;51.382;-0.002;2023-12-22T13:40:28;4.82;;;1.00;;
46719;SDS011;32452;51.382;-0.002;2023-12-22T13:43:14;9.77;;;1.40;;
46719;SDS011;32452;51.382;-0.002;2023-12-22T13:46:00;7.85;;;1.77;;
46719;SDS011;32452;51.382;-0.002;2023-12-22T13:48:46;8.63;;;1.50;;
46719;SDS011;32452;51.382;-0.002;2023-12-22T13:51:44;5.32;;;1.40;;
46719;SDS011;32452;51.382;-0.002;2023-12-22T13:54:33;5.45;;;1.67;;
46719;SDS011;32452;51.382;-0.002;2023-12-22T13:57:20;7.25;;;1.38;;
46719;SDS011;32452;51.382;-0.002;2023-12-22T14:03:05;5.75;;;1.40;;
46719;SDS011;32452;51.382;-0.002;2023-12-22T14:05:53;8.25;;;1.77;;
46719;SDS011;32452;51.382;-0.002;2023-12-22T14:08:41;5.50;;;1.40;;
46719;SDS011;32452;51.382;-0.002;2023-12-22T14:11:26;8.65;;;1.40;;
46719;SDS011;32452;51.382;-0.002;2023-12-22T14:14:16;7.20;;;1.55;;
46719;SDS011;32452;51.382;-0.002;2023-12-22T14:17:03;5.20;;;1.45;;
46719;SDS011;32452;51.382;-0.002;2023-12-22T14:19:48;6.40;;;1.08;;
46719;SDS011;32452;51.382;-0.002;2023-12-22T14:22:34;6.65;;;1.17;;
46719;SDS011;32452;51.382;-0.002;2023-12-22T14:25:20;4.35;;;1.23;;
46719;SDS011;32452;51.382;-0.002;2023-12-22T14:28:06;5.80;;;1.40;;
46719;SDS011;32452;51.382;-0.002;2023-12-22T14:30:51;3.58;;;0.98;;
46719;SDS011;32452;51.382;-0.002;2023-12-22T14:33:37;6.05;;;1.85;;
46719;SDS011;32452;51.382;-0.002;2023-12-22T14:36:26;4.75;;;0.98;;
46719;SDS011;32452;51.382;-0.002;2023-12-22T14:39:12;3.42;;;0.93;;
46719;SDS011;32452;51.382;-0.002;2023-12-22T14:41:57;6.47;;;1.45;;
46719;SDS011;32452;51.382;-0.002;2023-12-22T14:44:43;75.95;;;27.33;;
46719;SDS011;32452;51.382;-0.002;2023-12-22T14:47:29;14.57;;;4.93;;
46719;SDS011;32452;51.382;-0.002;2023-12-22T14:50:15;20.42;;;7.15;;
46719;SDS011;32452;51.382;-0.002;2023-12-22T14:53:02;5.80;;;1.60;;
46719;SDS011;32452;51.382;-0.002;2023-12-22T14:55:48;9.23;;;2.42;;
46719;SDS011;32452;51.382;-0.002;2023-12-22T14:58:34;14.18;;;2.60;;
46719;SDS011;32452;51.382;-0.002;2023-12-22T15:01:21;4.97;;;1.63;;
46719;SDS011;32452;51.382;-0.002;2023-12-22T15:04:07;8.40;;;2.15;;
46719;SDS011;32452;51.382;-0.002;2023-12-22T15:06:54;5.55;;;1.52;;
46719;SDS011;32452;51.382;-0.002;2023-12-22T15:09:45;10.90;;;2.50;;
46719;SDS011;32452;51.382;-0.002;2023-12-22T15:12:33;9.52;;;2.38;;
46719;SDS011;32452;51.382;-0.002;2023-12-22T15:15:22;9.90;;;1.85;;
46719;SDS011;32452;51.382;-0.002;2023-12-22T15:18:07;8.15;;;1.20;;
46719;SDS011;32452;51.382;-0.002;2023-12-22T15:20:57;6.45;;;2.70;;
46719;SDS011;32452;51.382;-0.002;2023-12-22T15:23:42;6.25;;;1.52;;
46719;SDS011;32452;51.382;-0.002;2023-12-22T15:26:28;5.30;;;1.35;;
46719;SDS011;32452;51.382;-0.002;2023-12-22T15:29:14;9.77;;;1.50;;
46719;SDS011;32452;51.382;-0.002;2023-12-22T15:31:59;10.80;;;2.35;;
46719;SDS011;32452;51.382;-0.002;2023-12-22T15:34:45;7.47;;;1.40;;
46719;SDS011;32452;51.382;-0.002;2023-12-22T15:37:32;9.38;;;2.30;;
46719;SDS011;32452;51.382;-0.002;2023-12-22T15:40:20;9.55;;;2.25;;
46719;SDS011;32452;51.382;-0.002;2023-12-22T15:43:06;6.47;;;1.38;;
46719;SDS011;32452;51.382;-0.002;2023-12-22T15:45:53;4.13;;;1.10;;
46719;SDS011;32452;51.382;-0.002;2023-12-22T15:48:38;7.90;;;1.17;;
46719;SDS011;32452;51.382;-0.002;2023-12-22T15:51:24;6.97;;;1.42;;
46719;SDS011;32452;51.382;-0.002;2023-12-22T15:54:10;5.78;;;1.80;;
46719;SDS011;32452;51.382;-0.002;2023-12-22T15:56:55;5.70;;;1.10;;
46719;SDS011;32452;51.382;-0.002;2023-12-22T15:59:41;7.07;;;1.20;;
46719;SDS011;32452;51.382;-0.002;2023-12-22T16:02:26;6.65;;;1.70;;
46719;SDS011;32452;51.382;-0.002;2023-12-22T16:05:12;7.97;;;1.30;;
46719;SDS011;32452;51.382;-0.002;2023-12-22T16:07:58;8.85;;;1.42;;
46719;SDS011;32452;51.382;-0.002;2023-12-22T16:10:47;9.15;;;2.28;;
46719;SDS011;32452;51.382;-0.002;2023-12-22T16:13:32;7.60;;;1.10;;
46719;SDS011;32452;51.382;-0.002;2023-12-22T16:16:18;7.25;;;1.52;;
46719;SDS011;32452;51.382;-0.002;2023-12-22T16:19:04;8.07;;;1.08;;
46719;SDS011;32452;51.382;-0.002;2023-12-22T16:21:54;5.00;;;1.08;;
46719;SDS011;32452;51.382;-0.002;2023-12-22T16:24:39;6.85;;;1.75;;
46719;SDS011;32452;51.382;-0.002;2023-12-22T16:27:25;4.93;;;1.23;;
46719;SDS011;32452;51.382;-0.002;2023-12-22T16:30:11;7.95;;;1.52;;
46719;SDS011;32452;51.382;-0.002;2023-12-22T16:32:57;9.10;;;1.50;;
46719;SDS011;32452;51.382;-0.002;2023-12-22T16:35:43;6.05;;;1.20;;
46719;SDS011;32452;51.382;-0.002;2023-12-22T16:38:28;9.02;;;1.63;;
46719;SDS011;32452;51.382;-0.002;2023-12-22T16:41:14;8.25;;;1.67;;